Time;durP1;ratioP1;P1;durP2;ratioP2;P2;SDS_P1;SDS_P2;PMS_P1;PMS_P2;Temp;Humidity;BMP_temperature;BMP_pressure;BME280_temperature;BME280_humidity;BME280_pressure;Samples;Min_cycle;Max_cycle;Signal;HPM_P1;HPM_P2
2021/11/13 00:00:15;;;;;;;34.35;14.80;;;;;;;1.62;100.00;98800.25;5093406;28;20021;-68
2021/11/13 00:02:41;;;;;;;32.30;14.55;;;;;;;1.51;100.00;98783.44;5079077;28;20109;-68
2021/11/13 00:05:08;;;;;;;70.30;15.82;;;;;;;1.60;100.00;98800.41;5089546;28;20029;-69
2021/11/13 00:07:33;;;;;;;27.02;14.85;;;;;;;1.67;100.00;98803.31;5088514;28;20074;-67
2021/11/13 00:09:58;;;;;;;29.45;14.55;;;;;;;1.52;100.00;98784.31;5093262;28;20028;-68
2021/11/13 00:12:24;;;;;;;27.17;13.40;;;;;;;1.71;100.00;98802.06;5085738;28;20028;-68
2021/11/13 00:14:50;;;;;;;26.00;14.50;;;;;;;1.69;100.00;98798.69;5062036;28;20037;-67
2021/11/13 00:17:16;;;;;;;29.95;14.93;;;;;;;1.73;100.00;98797.41;5069671;28;20021;-68
2021/11/13 00:19:42;;;;;;;26.60;14.52;;;;;;;1.60;100.00;98786.22;5073898;28;20032;-67
2021/11/13 00:22:07;;;;;;;24.45;13.10;;;;;;;1.57;100.00;98775.84;5085542;28;20036;-69
2021/11/13 00:24:33;;;;;;;24.83;14.32;;;;;;;1.67;100.00;98804.16;5079634;28;20036;-68
2021/11/13 00:26:59;;;;;;;26.90;14.15;;;;;;;1.65;100.00;98808.81;5072350;28;20032;-68
2021/11/13 00:29:24;;;;;;;30.73;14.40;;;;;;;1.58;100.00;98785.53;5068673;28;20078;-67
2021/11/13 00:31:52;;;;;;;31.27;14.65;;;;;;;1.64;100.00;98800.94;5065885;28;20029;-66
2021/11/13 00:34:18;;;;;;;31.10;14.35;;;;;;;1.67;100.00;98803.31;5066767;28;20359;-67
2021/11/13 00:36:43;;;;;;;39.17;16.05;;;;;;;1.71;100.00;98794.06;5060114;28;20035;-68
2021/11/13 00:39:09;;;;;;;29.90;14.00;;;;;;;1.71;100.00;98799.38;5071668;28;20046;-68
2021/11/13 00:41:34;;;;;;;43.30;14.73;;;;;;;1.57;100.00;98781.19;5075112;28;20052;-68
2021/11/13 00:43:59;;;;;;;36.42;14.40;;;;;;;1.66;100.00;98798.97;5069331;28;20386;-67
2021/11/13 00:46:25;;;;;;;32.50;15.02;;;;;;;1.76;100.00;98783.78;5072416;28;20060;-68
2021/11/13 00:48:50;;;;;;;55.25;17.27;;;;;;;1.78;100.00;98788.94;5072779;28;20113;-67
2021/11/13 00:51:16;;;;;;;26.50;15.15;;;;;;;1.81;100.00;98786.84;5068505;28;20037;-67
2021/11/13 00:53:41;;;;;;;89.80;17.10;;;;;;;1.71;100.00;98770.88;5066333;28;20032;-68
2021/11/13 00:56:06;;;;;;;133.88;17.05;;;;;;;1.58;100.00;98767.72;5055587;28;20040;-69
2021/11/13 00:58:33;;;;;;;28.55;14.75;;;;;;;1.57;100.00;98762.53;5052654;28;20033;-68
2021/11/13 01:00:59;;;;;;;38.78;14.50;;;;;;;1.54;100.00;98761.81;5052758;28;20104;-68
2021/11/13 01:03:24;;;;;;;49.30;15.10;;;;;;;1.48;100.00;98764.25;5065812;28;20119;-68
2021/11/13 01:05:49;;;;;;;55.70;16.63;;;;;;;1.66;100.00;98796.31;5070416;28;20039;-68
2021/11/13 01:08:15;;;;;;;37.65;16.60;;;;;;;1.71;100.00;98816.22;5072393;28;20040;-68
2021/11/13 01:10:40;;;;;;;31.30;15.02;;;;;;;1.71;100.00;98818.06;5072345;28;20028;-68
2021/11/13 01:13:06;;;;;;;48.22;16.48;;;;;;;1.62;100.00;98797.59;5066823;28;20033;-67
2021/11/13 01:15:32;;;;;;;49.05;14.65;;;;;;;1.68;100.00;98805.00;5075402;28;20112;-69
2021/11/13 01:17:57;;;;;;;78.57;15.95;;;;;;;1.68;100.00;98823.69;5074965;28;20060;-69
2021/11/13 01:20:24;;;;;;;60.28;14.90;;;;;;;1.66;100.00;98823.81;5061314;28;20091;-68
2021/11/13 01:22:50;;;;;;;28.92;16.15;;;;;;;1.72;100.00;98819.72;5072635;28;20025;-68
2021/11/13 01:25:16;;;;;;;41.08;15.23;;;;;;;1.53;100.00;98810.81;5063975;28;20029;-68
2021/11/13 01:27:42;;;;;;;35.75;14.82;;;;;;;1.51;100.00;98841.28;5074239;28;20032;-68
2021/11/13 01:30:09;;;;;;;44.17;14.65;;;;;;;1.49;100.00;98829.91;5074966;28;20031;-68
2021/11/13 01:32:35;;;;;;;33.70;14.55;;;;;;;1.53;100.00;98848.13;5073052;28;20477;-68
2021/11/13 01:35:00;;;;;;;44.42;15.60;;;;;;;1.43;100.00;98825.16;5074735;28;20032;-67
2021/11/13 01:37:25;;;;;;;54.00;15.20;;;;;;;1.51;100.00;98841.28;5074221;28;20481;-68
2021/11/13 01:39:51;;;;;;;34.30;13.70;;;;;;;1.45;100.00;98836.53;5072602;28;20051;-68
2021/11/13 01:42:16;;;;;;;110.13;15.40;;;;;;;1.38;100.00;98833.59;5073266;28;20044;-68
2021/11/13 01:44:42;;;;;;;71.30;15.25;;;;;;;1.35;100.00;98828.53;5063815;28;20029;-68
2021/11/13 01:47:08;;;;;;;25.40;13.52;;;;;;;1.47;100.00;98837.22;5070864;28;20044;-68
2021/11/13 01:49:36;;;;;;;28.65;14.35;;;;;;;1.51;100.00;98828.78;5073688;28;20033;-67
2021/11/13 01:52:10;;;;;;;83.27;15.03;;;;;;;1.47;100.00;98818.56;5075047;28;20029;-69
2021/11/13 01:54:39;;;;;;;38.25;16.52;;;;;;;1.46;100.00;98815.03;5056582;28;20293;-68
2021/11/13 01:57:08;;;;;;;28.73;15.13;;;;;;;1.41;100.00;98806.63;5055437;28;20025;-67
2021/11/13 01:59:34;;;;;;;47.50;14.45;;;;;;;1.43;100.00;98804.66;5058153;28;20203;-67
2021/11/13 02:02:00;;;;;;;33.78;13.65;;;;;;;1.32;100.00;98783.53;5074827;28;20539;-67
2021/11/13 02:04:25;;;;;;;26.30;13.85;;;;;;;1.45;100.00;98804.53;5074590;28;20107;-67
2021/11/13 02:06:50;;;;;;;28.05;13.77;;;;;;;1.47;100.00;98800.75;5075422;28;20028;-67
2021/11/13 02:09:15;;;;;;;41.17;14.48;;;;;;;1.51;100.00;98804.78;5071450;28;20028;-67
2021/11/13 02:11:41;;;;;;;24.75;12.93;;;;;;;1.54;100.00;98800.97;5074588;28;20024;-68
2021/11/13 02:14:06;;;;;;;33.95;13.40;;;;;;;1.32;100.00;98767.53;5067862;28;20025;-71
2021/11/13 02:16:32;;;;;;;27.23;13.43;;;;;;;1.51;100.00;98806.59;5073966;28;20089;-67
2021/11/13 02:18:57;;;;;;;39.72;14.43;;;;;;;1.46;100.00;98809.69;5074478;28;20028;-68
2021/11/13 02:21:26;;;;;;;24.13;14.20;;;;;;;1.39;100.00;98792.63;5064047;28;20033;-69
2021/11/13 02:23:51;;;;;;;58.88;14.23;;;;;;;1.44;100.00;98803.69;5057671;28;20025;-69
2021/11/13 02:26:16;;;;;;;28.13;13.52;;;;;;;1.51;100.00;98817.28;5071594;28;20027;-67
2021/11/13 02:28:42;;;;;;;64.22;13.80;;;;;;;1.39;100.00;98813.09;5063918;28;20044;-68
2021/11/13 02:31:10;;;;;;;27.60;13.15;;;;;;;1.53;100.00;98831.31;5064068;28;20031;-67
2021/11/13 02:33:37;;;;;;;33.20;13.27;;;;;;;1.52;100.00;98826.97;5070617;28;20465;-68
2021/11/13 02:36:04;;;;;;;23.75;12.90;;;;;;;1.63;100.00;98823.28;5071655;28;20064;-69
2021/11/13 02:38:35;;;;;;;24.65;12.52;;;;;;;1.61;100.00;98823.41;5073270;28;20490;-68
2021/11/13 02:41:03;;;;;;;25.30;12.82;;;;;;;1.68;100.00;98827.19;5067279;28;20036;-69
2021/11/13 02:43:31;;;;;;;58.65;14.32;;;;;;;1.45;100.00;98821.38;5063466;28;20029;-66
2021/11/13 02:46:01;;;;;;;25.30;12.40;;;;;;;1.67;100.00;98801.47;5071492;28;20028;-68
2021/11/13 02:48:28;;;;;;;22.42;12.70;;;;;;;1.52;100.00;98782.47;5072050;28;20035;-67
2021/11/13 02:50:54;;;;;;;34.08;12.85;;;;;;;1.45;100.00;98783.22;5073784;28;20028;-67
2021/11/13 02:53:25;;;;;;;24.77;13.18;;;;;;;1.63;100.00;98801.94;5074035;28;20504;-68
2021/11/13 02:55:53;;;;;;;36.55;14.05;;;;;;;1.57;100.00;98794.50;5063087;28;20028;-68
2021/11/13 02:58:23;;;;;;;209.68;17.42;;;;;;;1.23;100.00;98798.56;5070946;28;20078;-67
2021/11/13 03:00:52;;;;;;;69.47;14.20;;;;;;;1.20;100.00;98804.16;5073373;28;20115;-68
2021/11/13 03:03:19;;;;;;;;;;;;;;;1.19;100.00;98805.16;5059526;28;20025;-67
2021/11/13 03:05:50;;;;;;;55.83;14.48;;;;;;;1.22;100.00;98799.53;5054063;28;19912;-68
2021/11/13 03:08:22;;;;;;;49.30;14.05;;;;;;;1.04;100.00;98778.13;5056929;28;20032;-67
2021/11/13 03:10:47;;;;;;;23.88;13.05;;;;;;;1.22;100.00;98804.03;5056085;28;20028;-67
2021/11/13 03:13:12;;;;;;;22.20;12.27;;;;;;;1.21;100.00;98810.34;5069938;28;20397;-67
2021/11/13 03:15:38;;;;;;;175.13;16.73;;;;;;;1.04;100.00;98786.09;5074811;28;20032;-66
2021/11/13 03:18:03;;;;;;;22.27;12.70;;;;;;;1.15;100.00;98808.25;5073641;28;20078;-67
2021/11/13 03:20:30;;;;;;;60.80;15.18;;;;;;;0.95;100.00;98789.66;5073481;28;20078;-66
2021/11/13 03:22:59;;;;;;;159.52;17.63;;;;;;;1.07;100.00;98804.50;5070969;28;20615;-67
2021/11/13 03:25:29;;;;;;;35.33;13.60;;;;;;;1.01;100.00;98773.06;5070192;28;20024;-66
2021/11/13 03:27:59;;;;;;;186.20;18.25;;;;;;;1.06;100.00;98799.28;5053776;28;20118;-67
2021/11/13 03:30:24;;;;;;;109.95;17.00;;;;;;;0.74;100.00;98765.84;5053358;28;20021;-67
2021/11/13 03:32:52;;;;;;;86.90;15.32;;;;;;;0.76;100.00;98779.88;5066957;28;20089;-67
2021/11/13 03:35:26;;;;;;;35.58;14.38;;;;;;;0.99;100.00;98811.50;5072298;28;20016;-66
2021/11/13 03:37:52;;;;;;;37.00;14.20;;;;;;;1.01;100.00;98810.38;5071817;28;20025;-67
2021/11/13 03:40:17;;;;;;;38.83;15.45;;;;;;;0.93;100.00;98804.91;5062548;28;20393;-66
2021/11/13 03:42:43;;;;;;;49.25;15.52;;;;;;;0.94;100.00;98803.94;5064829;28;20090;-67
2021/11/13 03:45:09;;;;;;;34.60;14.45;;;;;;;0.97;100.00;98808.13;5053517;28;20482;-67
2021/11/13 03:47:34;;;;;;;39.22;15.25;;;;;;;0.84;100.00;98776.50;5061565;28;20374;-70
2021/11/13 03:50:00;;;;;;;33.45;13.75;;;;;;;0.79;100.00;98773.41;5073792;28;20469;-67
2021/11/13 03:52:25;;;;;;;46.05;15.98;;;;;;;0.92;100.00;98800.59;5064032;28;20021;-66
2021/11/13 03:54:50;;;;;;;31.08;13.93;;;;;;;1.00;100.00;98797.22;5055548;28;20020;-67
2021/11/13 03:57:16;;;;;;;34.08;13.93;;;;;;;0.98;100.00;98788.53;5066417;28;20559;-67
2021/11/13 03:59:41;;;;;;;24.65;13.52;;;;;;;0.90;100.00;98777.75;5074095;28;20063;-67
2021/11/13 04:02:10;;;;;;;28.08;14.45;;;;;;;0.93;100.00;98785.44;5071380;28;20029;-67
2021/11/13 04:04:36;;;;;;;30.35;14.50;;;;;;;0.94;100.00;98787.94;5054447;28;20124;-67
2021/11/13 04:07:02;;;;;;;29.95;14.73;;;;;;;0.90;100.00;98786.56;5068393;28;20063;-67
2021/11/13 04:09:27;;;;;;;32.28;14.95;;;;;;;0.96;100.00;98790.47;5070267;28;20033;-68
2021/11/13 04:11:52;;;;;;;34.67;14.82;;;;;;;1.01;100.00;98798.88;5073394;28;20024;-67
2021/11/13 04:14:18;;;;;;;39.45;15.52;;;;;;;0.99;100.00;98785.69;5070238;28;20112;-67
2021/11/13 04:16:43;;;;;;;27.05;13.77;;;;;;;1.01;100.00;98781.06;5071099;28;20033;-67
2021/11/13 04:19:10;;;;;;;30.73;15.70;;;;;;;1.02;100.00;98777.44;5057387;28;20055;-66
2021/11/13 04:21:39;;;;;;;33.00;15.38;;;;;;;1.06;100.00;98762.84;5055742;28;20033;-67
2021/11/13 04:24:05;;;;;;;33.17;12.52;;;;;;;0.91;100.00;98750.09;5071547;28;20524;-67
2021/11/13 04:26:30;;;;;;;41.03;15.50;;;;;;;1.02;100.00;98777.44;5073126;28;20068;-68
2021/11/13 04:28:56;;;;;;;70.80;18.83;;;;;;;0.85;100.00;98752.34;5073171;28;20081;-67
2021/11/13 04:31:21;;;;;;;39.03;16.50;;;;;;;0.93;100.00;98748.16;5073313;28;20028;-67
2021/11/13 04:33:46;;;;;;;41.47;17.60;;;;;;;0.92;100.00;98731.34;5065141;28;20457;-67
2021/11/13 04:36:21;;;;;;;36.53;17.63;;;;;;;1.07;100.00;98769.88;5058641;28;20033;-67
2021/11/13 04:38:48;;;;;;;35.35;17.00;;;;;;;1.03;100.00;98765.78;5056365;28;20074;-66
2021/11/13 04:41:14;;;;;;;43.72;19.17;;;;;;;0.97;100.00;98758.38;5072312;28;20032;-68
2021/11/13 04:43:39;;;;;;;38.72;17.48;;;;;;;1.12;100.00;98761.41;5070871;28;20070;-67
2021/11/13 04:46:04;;;;;;;38.72;17.23;;;;;;;1.05;100.00;98749.69;5073247;28;20078;-68
2021/11/13 04:48:30;;;;;;;46.38;19.48;;;;;;;1.09;100.00;98762.53;5075326;28;20047;-68
2021/11/13 04:50:57;;;;;;;50.97;20.55;;;;;;;1.09;100.00;98764.38;5074142;28;20098;-68
2021/11/13 04:53:22;;;;;;;48.70;19.67;;;;;;;1.15;100.00;98763.78;5076186;28;20107;-67
2021/11/13 04:55:48;;;;;;;48.63;20.42;;;;;;;1.05;100.00;98747.84;5076131;28;20056;-73
2021/11/13 04:58:13;;;;;;;43.75;20.10;;;;;;;1.17;100.00;98764.47;5076791;28;20028;-74
2021/11/13 05:00:39;;;;;;;44.72;21.25;;;;;;;1.03;100.00;98746.31;5076136;28;20077;-72
2021/11/13 05:03:04;;;;;;;47.10;20.58;;;;;;;1.11;100.00;98733.09;5077310;28;20094;-73
2021/11/13 05:05:29;;;;;;;44.70;20.30;;;;;;;1.19;100.00;98740.38;5075700;28;20028;-73
2021/11/13 05:07:56;;;;;;;44.60;19.50;;;;;;;1.35;100.00;98756.56;5071564;28;20028;-72
2021/11/13 05:10:21;;;;;;;41.20;19.77;;;;;;;1.38;100.00;98763.44;5064075;28;20497;-71
2021/11/13 05:12:47;;;;;;;40.95;19.35;;;;;;;1.39;100.00;98765.97;5064735;28;20028;-71
2021/11/13 05:15:13;;;;;;;46.05;19.38;;;;;;;1.11;100.00;98733.09;5076638;28;20024;-71
2021/11/13 05:17:39;;;;;;;42.60;19.52;;;;;;;1.26;100.00;98765.47;5072881;28;20055;-71
2021/11/13 05:20:08;;;;;;;48.28;20.58;;;;;;;1.17;100.00;98751.16;5075247;28;20085;-71
2021/11/13 05:22:34;;;;;;;53.78;21.20;;;;;;;1.27;100.00;98762.63;5070753;28;20058;-71
2021/11/13 05:25:00;;;;;;;54.20;22.00;;;;;;;1.16;100.00;98741.50;5071272;28;20025;-71
2021/11/13 05:27:25;;;;;;;52.33;21.73;;;;;;;1.12;100.00;98736.59;5077232;28;20021;-69
2021/11/13 05:29:51;;;;;;;52.88;22.02;;;;;;;1.36;100.00;98770.75;5075905;28;20378;-72
2021/11/13 05:32:16;;;;;;;43.90;19.95;;;;;;;1.25;100.00;98732.63;5116871;22;20568;-76
2021/11/13 05:34:42;;;;;;;41.38;20.77;;;;;;;1.29;100.00;98726.03;5069178;28;20021;-75
2021/11/13 05:37:07;;;;;;;41.55;19.38;;;;;;;1.27;100.00;98740.47;5075660;28;20048;-74
2021/11/13 05:39:36;;;;;;;37.20;19.45;;;;;;;1.20;100.00;98736.72;5069632;28;20024;-74
2021/11/13 05:42:01;;;;;;;41.78;18.75;;;;;;;1.26;100.00;98741.47;5065553;28;20102;-73
2021/11/13 05:44:26;;;;;;;37.67;18.92;;;;;;;1.34;100.00;98759.38;5055232;28;20498;-71
2021/11/13 05:46:54;;;;;;;35.72;17.77;;;;;;;1.22;100.00;98737.41;5053887;28;20025;-73
2021/11/13 05:49:19;;;;;;;37.50;17.98;;;;;;;1.25;100.00;98726.44;5054660;28;20063;-73
2021/11/13 05:51:45;;;;;;;36.28;18.58;;;;;;;1.40;100.00;98746.31;5053811;28;20032;-71
2021/11/13 05:54:10;;;;;;;34.05;17.75;;;;;;;1.34;100.00;98730.91;5060530;28;20371;-74
2021/11/13 05:56:36;;;;;;;28.77;16.67;;;;;;;1.39;100.00;98736.66;5052055;28;21795;-76
2021/11/13 05:59:01;;;;;;;31.45;17.45;;;;;;;1.33;100.00;98718.56;5052756;28;20043;-76
2021/11/13 06:01:27;;;;;;;28.38;15.48;;;;;;;1.31;100.00;98728.56;5060629;28;20036;-76
2021/11/13 06:03:52;;;;;;;32.70;16.10;;;;;;;1.25;100.00;98705.13;5069531;28;20029;-76
2021/11/13 06:06:18;;;;;;;28.90;15.57;;;;;;;1.49;100.00;98729.47;5044410;28;20078;-72
2021/11/13 06:08:43;;;;;;;28.48;16.23;;;;;;;1.54;100.00;98734.31;5048229;28;20032;-70
2021/11/13 06:11:09;;;;;;;25.98;14.27;;;;;;;1.56;100.00;98724.34;5055077;28;20666;-71
2021/11/13 06:13:34;;;;;;;25.15;15.05;;;;;;;1.62;100.00;98725.59;5045241;28;20032;-69
2021/11/13 06:16:02;;;;;;;22.77;13.40;;;;;;;1.56;100.00;98708.34;5062325;28;20036;-73
2021/11/13 06:18:28;;;;;;;20.85;12.93;;;;;;;1.50;100.00;98699.13;5056993;28;20095;-72
2021/11/13 06:20:54;;;;;;;26.75;14.60;;;;;;;1.80;100.00;98714.97;5035745;28;20120;-73
2021/11/13 06:23:19;;;;;;;24.58;14.07;;;;;;;1.80;100.00;98702.47;5053538;28;20444;-75
2021/11/13 06:25:44;;;;;;;20.17;11.82;;;;;;;1.80;100.00;98705.13;5058650;28;20470;-66
2021/11/13 06:28:10;;;;;;;18.60;12.10;;;;;;;1.84;100.00;98711.03;5074294;28;20029;-70
2021/11/13 06:30:35;;;;;;;19.15;10.85;;;;;;;1.86;100.00;98712.56;5068960;28;20104;-66
2021/11/13 06:33:00;;;;;;;20.35;12.52;;;;;;;2.00;100.00;98715.69;5046064;28;20033;-67
2021/11/13 06:35:26;;;;;;;19.65;11.13;;;;;;;1.98;100.00;98697.16;5053431;28;20104;-66
2021/11/13 06:37:51;;;;;;;19.42;11.02;;;;;;;2.12;100.00;98714.47;5054463;28;20037;-67
2021/11/13 06:40:18;;;;;;;16.85;10.38;;;;;;;2.19;100.00;98712.88;5049298;28;20103;-67
2021/11/13 06:42:44;;;;;;;17.38;11.07;;;;;;;2.27;100.00;98712.09;5044605;28;20489;-70
2021/11/13 06:45:12;;;;;;;15.65;10.43;;;;;;;2.35;100.00;98709.50;5043847;28;20033;-67
2021/11/13 06:47:38;;;;;;;18.58;10.20;;;;;;;2.38;100.00;98703.84;5042630;28;20024;-67
2021/11/13 06:50:06;;;;;;;16.60;10.20;;;;;;;2.49;100.00;98705.44;5045354;28;20029;-66
2021/11/13 06:52:31;;;;;;;22.60;11.38;;;;;;;2.47;100.00;98691.44;5042377;28;20021;-68
2021/11/13 06:54:57;;;;;;;19.58;10.80;;;;;;;2.45;100.00;98694.25;5047163;28;20025;-68
2021/11/13 06:57:22;;;;;;;19.65;10.68;;;;;;;2.52;100.00;98694.47;5040251;28;20025;-68
2021/11/13 06:59:48;;;;;;;15.52;9.50;;;;;;;2.70;100.00;98705.97;5046020;28;20029;-68
2021/11/13 07:02:15;;;;;;;18.35;10.68;;;;;;;2.79;100.00;98713.03;5048016;28;20036;-68
2021/11/13 07:04:40;;;;;;;19.48;10.73;;;;;;;2.78;100.00;98699.84;5045973;28;20032;-70
2021/11/13 07:07:06;;;;;;;18.10;10.98;;;;;;;3.02;100.00;98715.22;5046297;28;20024;-68
2021/11/13 07:09:31;;;;;;;15.10;9.40;;;;;;;3.08;100.00;98714.56;5044546;28;20108;-67
2021/11/13 07:11:56;;;;;;;14.40;9.18;;;;;;;3.14;100.00;98707.75;5042302;28;20112;-67
2021/11/13 07:14:22;;;;;;;15.95;9.35;;;;;;;3.18;100.00;98704.59;5041201;28;20028;-73
2021/11/13 07:16:48;;;;;;;14.70;9.45;;;;;;;3.26;100.00;98703.81;5050833;28;20071;-69
2021/11/13 07:19:13;;;;;;;14.55;8.95;;;;;;;3.28;100.00;98691.13;5053510;28;20028;-68
2021/11/13 07:21:39;;;;;;;16.98;8.73;;;;;;;3.42;98.56;98714.59;5048277;28;20509;-70
2021/11/13 07:24:07;;;;;;;15.35;9.75;;;;;;;3.32;98.89;98692.47;5043362;28;20021;-70
2021/11/13 07:26:32;;;;;;;14.32;9.40;;;;;;;3.41;100.00;98720.94;5054124;28;20452;-70
2021/11/13 07:29:03;;;;;;;17.92;10.00;;;;;;;3.44;100.00;98731.31;5052917;28;20025;-67
2021/11/13 07:31:29;;;;;;;15.57;9.60;;;;;;;3.40;100.00;98731.78;5040680;28;20063;-70
2021/11/13 07:33:54;;;;;;;17.30;9.88;;;;;;;3.22;100.00;98703.31;5045305;28;20017;-68
2021/11/13 07:36:20;;;;;;;15.05;9.57;;;;;;;3.57;100.00;98744.25;5051536;28;20583;-69
2021/11/13 07:38:46;;;;;;;15.32;9.25;;;;;;;3.48;100.00;98740.72;5042502;28;20025;-71
2021/11/13 07:41:12;;;;;;;14.95;8.38;;;;;;;3.58;100.00;98743.25;5047621;28;20042;-71
2021/11/13 07:43:38;;;;;;;15.70;8.98;;;;;;;3.59;100.00;98734.22;5055076;28;20037;-70
2021/11/13 07:46:04;;;;;;;15.50;9.27;;;;;;;3.81;100.00;98748.84;5051483;28;20478;-71
2021/11/13 07:48:29;;;;;;;15.65;9.52;;;;;;;3.87;100.00;98748.19;5046818;28;20033;-73
2021/11/13 07:50:56;;;;;;;12.82;8.70;;;;;;;3.82;100.00;98765.75;5049987;28;20466;-72
2021/11/13 07:53:22;;;;;;;13.27;8.57;;;;;;;3.87;100.00;98750.03;5050398;28;20033;-72
2021/11/13 07:55:48;;;;;;;14.15;8.98;;;;;;;3.94;100.00;98745.72;5035871;28;20653;-74
2021/11/13 07:58:16;;;;;;;14.30;9.02;;;;;;;4.04;100.00;98745.59;5048752;28;20508;-73
2021/11/13 08:00:42;;;;;;;13.15;9.02;;;;;;;3.99;100.00;98727.34;5069820;28;20032;-74
2021/11/13 08:03:07;;;;;;;14.30;9.02;;;;;;;4.30;99.22;98729.44;5058331;28;20055;-74
2021/11/13 08:05:33;;;;;;;13.63;8.70;;;;;;;4.63;95.85;98734.78;5048021;28;20548;-72
2021/11/13 08:07:58;;;;;;;13.75;8.23;;;;;;;4.95;94.66;98707.13;5049239;28;20597;-72
2021/11/13 08:10:23;;;;;;;12.88;8.30;;;;;;;5.67;90.15;98724.03;5047435;28;20029;-71
2021/11/13 08:12:49;;;;;;;11.32;7.65;;;;;;;6.03;89.25;98738.88;5043926;28;20029;-71
2021/11/13 08:15:17;;;;;;;11.68;7.45;;;;;;;5.90;88.45;98740.22;5062292;28;20024;-71
2021/11/13 08:17:42;;;;;;;10.63;7.28;;;;;;;6.02;87.32;98719.19;5063553;28;20066;-71
2021/11/13 08:20:10;;;;;;;12.60;8.25;;;;;;;5.54;87.61;98725.59;5040966;28;20418;-71
2021/11/13 08:22:36;;;;;;;13.50;8.90;;;;;;;5.24;89.49;98744.16;5046305;28;20025;-72
2021/11/13 08:25:03;;;;;;;12.00;8.30;;;;;;;5.09;90.00;98719.03;5047775;28;20028;-70
2021/11/13 08:27:29;;;;;;;15.82;8.57;;;;;;;4.92;92.45;98743.16;5032185;28;20495;-70
2021/11/13 08:29:54;;;;;;;20.77;9.00;;;;;;;4.99;91.16;98736.13;5039572;28;20031;-70
2021/11/13 08:32:19;;;;;;;12.77;9.00;;;;;;;4.89;92.21;98740.81;5043141;28;20033;-70
2021/11/13 08:34:45;;;;;;;13.38;8.23;;;;;;;4.85;93.09;98742.19;5058407;28;20111;-71
2021/11/13 08:37:10;;;;;;;14.63;9.23;;;;;;;5.02;92.57;98749.19;5050782;28;20025;-71
2021/11/13 08:39:36;;;;;;;10.88;7.78;;;;;;;5.11;93.21;98741.13;5044171;28;20025;-71
2021/11/13 08:42:14;;;;;;;11.95;8.45;;;;;;;5.15;93.01;98755.88;5050011;28;20072;-71
2021/11/13 08:44:43;;;;;;;12.98;8.68;;;;;;;5.11;93.72;98749.16;5069780;28;20033;-72
2021/11/13 08:47:09;;;;;;;13.52;8.38;;;;;;;4.91;94.40;98746.84;5065198;28;20027;-72
2021/11/13 08:49:43;;;;;;;16.17;9.07;;;;;;;4.93;94.89;98757.41;5046999;28;20029;-71
2021/11/13 08:52:11;;;;;;;13.25;8.52;;;;;;;4.86;96.16;98757.25;5041068;28;20090;-72
2021/11/13 08:54:36;;;;;;;11.57;8.15;;;;;;;4.78;96.74;98752.72;5052309;28;20086;-72
2021/11/13 08:57:03;;;;;;;16.05;9.30;;;;;;;4.80;97.80;98771.31;5051708;28;20474;-71
2021/11/13 08:59:29;;;;;;;14.15;8.98;;;;;;;4.68;98.28;98789.56;5044070;28;20030;-73
2021/11/13 09:01:55;;;;;;;12.77;8.68;;;;;;;4.47;98.09;98757.06;5036156;28;20032;-71
2021/11/13 09:04:20;;;;;;;13.35;8.18;;;;;;;4.40;98.54;98767.56;5050222;28;20478;-72
2021/11/13 09:06:46;;;;;;;14.07;8.98;;;;;;;4.50;98.27;98796.91;5037595;28;20040;-70
2021/11/13 09:09:12;;;;;;;15.00;8.90;;;;;;;4.52;98.50;98779.66;5034164;28;20387;-71
2021/11/13 09:11:40;;;;;;;12.95;8.25;;;;;;;4.67;99.38;98771.81;5043845;28;20498;-70
2021/11/13 09:14:09;;;;;;;13.57;8.90;;;;;;;4.66;98.56;98734.47;5055001;28;20017;-70
2021/11/13 09:16:34;;;;;;;16.10;9.02;;;;;;;5.10;97.62;98745.66;5048369;28;20861;-70
2021/11/13 09:19:01;;;;;;;16.55;9.82;;;;;;;5.12;96.27;98753.53;5051094;28;20116;-70
2021/11/13 09:21:29;;;;;;;16.63;9.18;;;;;;;5.27;94.48;98746.47;5047848;28;20033;-70
2021/11/13 09:23:54;;;;;;;15.80;8.80;;;;;;;5.49;93.58;98743.06;5051153;28;20025;-70
2021/11/13 09:26:20;;;;;;;15.75;9.20;;;;;;;5.63;93.63;98751.41;5042300;28;20128;-70
2021/11/13 09:28:45;;;;;;;14.00;9.23;;;;;;;6.08;90.28;98747.22;5036872;28;20020;-71
2021/11/13 09:31:12;;;;;;;14.63;8.82;;;;;;;6.17;87.77;98732.72;5040910;28;20029;-71
2021/11/13 09:33:37;;;;;;;12.95;8.32;;;;;;;6.13;86.80;98708.09;5042046;28;20468;-72
2021/11/13 09:36:03;;;;;;;13.57;8.43;;;;;;;6.40;86.92;98723.88;5044817;28;20041;-71
2021/11/13 09:38:32;;;;;;;13.07;7.15;;;;;;;6.54;85.41;98725.75;5045972;28;20052;-71
2021/11/13 09:41:00;;;;;;;15.80;8.57;;;;;;;6.95;82.37;98725.44;5046079;28;20031;-73
2021/11/13 09:43:27;;;;;;;12.57;8.32;;;;;;;7.33;80.15;98701.16;5042846;28;20649;-73
2021/11/13 09:45:55;;;;;;;12.90;8.85;;;;;;;8.15;77.45;98727.94;5046794;28;20060;-71
2021/11/13 09:48:20;;;;;;;14.10;8.73;;;;;;;8.96;76.16;98708.81;5045333;28;20036;-74
2021/11/13 09:50:49;;;;;;;11.70;7.80;;;;;;;10.39;71.80;98720.03;5045363;28;20028;-72
2021/11/13 09:53:15;;;;;;;12.07;7.33;;;;;;;11.63;64.43;98720.25;5042824;28;20374;-71
2021/11/13 09:55:40;;;;;;;13.10;7.25;;;;;;;12.58;61.62;98711.50;5045908;28;20029;-74
2021/11/13 09:58:06;;;;;;;13.00;7.40;;;;;;;12.07;59.59;98710.50;5044198;28;20035;-71
2021/11/13 10:00:36;;;;;;;12.60;7.63;;;;;;;11.48;64.46;98716.13;5042311;28;20029;-73
2021/11/13 10:03:02;;;;;;;12.55;8.13;;;;;;;10.53;64.03;98719.00;5036902;28;20968;-74
2021/11/13 10:05:27;;;;;;;12.15;7.97;;;;;;;9.54;67.68;98711.34;5041078;28;20036;-73
2021/11/13 10:07:53;;;;;;;13.68;8.02;;;;;;;9.51;71.42;98739.56;5048223;28;20033;-72
2021/11/13 10:10:35;;;;;;;12.98;7.97;;;;;;;9.38;70.66;98718.72;5042577;28;20494;-71
2021/11/13 10:13:02;;;;;;;12.35;7.82;;;;;;;8.27;72.81;98706.69;5043604;28;20482;-71
2021/11/13 10:15:39;;;;;;;11.75;7.65;;;;;;;8.23;77.11;98721.59;5052989;28;20039;-72
2021/11/13 10:18:14;;;;;;;13.07;7.70;;;;;;;8.43;77.10;98727.22;5062162;28;20024;-73
2021/11/13 10:20:48;;;;;;;13.65;8.20;;;;;;;8.65;78.36;98726.22;5053079;28;20131;-71
2021/11/13 10:23:38;;;;;;;11.00;7.43;;;;;;;9.15;76.14;98718.97;5054514;28;20024;-73
2021/11/13 10:26:08;;;;;;;9.80;6.80;;;;;;;9.35;74.64;98705.59;5045424;28;20057;-72
2021/11/13 10:29:05;;;;;;;11.88;7.78;;;;;;;9.76;73.92;98712.88;5044588;28;20025;-73
2021/11/13 10:31:34;;;;;;;10.68;7.35;;;;;;;9.96;73.33;98701.34;5036058;28;20546;-70
2021/11/13 10:34:02;;;;;;;;;;;;;;;9.90;72.37;98699.44;5073292;28;20094;-73
2021/11/13 10:36:34;;;;;;;9.98;6.50;;;;;;;9.76;72.99;98691.28;5046093;28;19946;-74
2021/11/13 10:39:06;;;;;;;12.32;6.63;;;;;;;9.49;73.65;98694.88;5044126;28;20029;-72
2021/11/13 10:41:42;;;;;;;10.27;7.05;;;;;;;9.37;74.39;98694.59;5043263;28;20043;-68
2021/11/13 10:44:08;;;;;;;9.77;7.05;;;;;;;9.36;75.66;98691.06;5050664;28;20032;-69
2021/11/13 10:46:33;;;;;;;11.82;7.32;;;;;;;9.30;76.09;98691.00;5051423;28;20044;-69
2021/11/13 10:48:59;;;;;;;11.82;7.43;;;;;;;9.07;76.05;98675.09;5056889;28;20078;-68
2021/11/13 10:51:34;;;;;;;12.55;7.32;;;;;;;9.05;75.31;98687.94;5059471;28;20033;-69
2021/11/13 10:54:15;;;;;;;11.73;6.85;;;;;;;9.28;74.79;98693.94;5048081;28;20044;-69
2021/11/13 10:56:45;;;;;;;11.45;7.20;;;;;;;9.43;74.89;98681.16;5051542;28;20029;-68
2021/11/13 10:59:11;;;;;;;10.82;7.07;;;;;;;9.68;72.11;98693.31;5051474;28;20651;-69
2021/11/13 11:01:40;;;;;;;11.43;7.43;;;;;;;9.96;71.79;98664.34;5048184;28;20037;-68
2021/11/13 11:04:13;;;;;;;11.23;6.47;;;;;;;9.80;70.51;98673.63;5049386;28;20034;-69
2021/11/13 11:06:46;;;;;;;11.18;7.63;;;;;;;9.73;71.90;98663.84;5045953;28;20574;-68
2021/11/13 11:09:30;;;;;;;10.48;6.45;;;;;;;9.90;71.38;98664.31;5051308;28;20017;-69
2021/11/13 11:12:01;;;;;;;9.30;6.57;;;;;;;9.81;69.68;98675.28;5044757;28;20686;-69
2021/11/13 11:14:30;;;;;;;10.18;6.78;;;;;;;9.91;70.07;98674.09;5049613;28;20707;-69
2021/11/13 11:17:05;;;;;;;11.88;6.65;;;;;;;10.10;68.75;98665.22;5052401;28;20020;-69
2021/11/13 11:19:33;;;;;;;10.43;6.70;;;;;;;10.02;69.39;98668.94;5066593;28;20036;-69